Extreme weather reports worldwide

High winds

Station
 
Location
 
Name
 
Wind
Knots
Gust
Knots
Vis
SM
Temp/Dew
C
Baro
inHg
METAR
 
LUR PALU Cape Lisburne, US Cape Lisburne LRRS Airport 39 45 10 2/0 29.87 PALU 272155Z AUTO 23039G45KT 10SM BKN110 BKN140 02/00 A2987 RMK AO2 PK WND 23045/2128 SLP115 T00201003
ENNE 37 7/5 29.70 ENNE 272220Z AUTO 33037KT 9999NDV OVC011/// 07/05 Q1006 W///S5
ENHE 36 6.21 7/6 29.73 ENHE 272220Z 35036KT 9999 OVC008 07/06 Q1007 W///S5
ENLE 36 6.21 9/5 30.03 ENLE 272220Z 30036KT 9999 SCT015TCU BKN050 09/05 Q1017 W11/S5
ENUN 36 6/4 29.73 ENUN 272220Z AUTO 33036KT 9999NDV BKN010/// 06/04 Q1007 W07/S5

Station
 
Location
 
Name
 
Wind
Knots
Gust
Knots
Vis
SM
Temp/Dew
C
Baro
inHg
METAR
 
ENWV 35 10/7 30.00 ENWV 272220Z AUTO 31035KT 9999NDV FEW021/// SCT043/// 10/07 Q1016 W///S5
ENSL NO Sleipner A Platform 34 10/6 30.06 ENSL 272220Z AUTO 33034KT 9999NDV BKN018/// 10/06 Q1018 W08/S/
COS KCOS Colorado Springs, US City of Colorado Springs Municipal Airport 33 48 10 26/-5 30.01 KCOS 272154Z 22033G48KT 10SM SCT110 BKN220 27/M05 A3001 RMK AO2 PK WND 22048/2148 SLP083 VIRGA SE-SW T02671050
YRB CYRB Resolute Bay, CA Resolute Bay Airport 32 25 -6/-10 29.95 CYRB 272200Z 10032KT 25SM R35/5500VP6000FT/D SCT062 M06/M10 A2995 RMK SC3 SLP152
EHAK 32 6.21 11/6 30.06 EHAK 272225Z AUTO 34032KT 310V020 9999 FEW021/// 11/06 Q1018
CTB KCTB Cut Bank, US Cut Bank International Airport 31 41 10 17/3 29.74 KCTB 272156Z AUTO 24031G41KT 10SM CLR 17/04 A2974 RMK AO2 PK WND 25041/2147 SLP057 T01720039
CWER 31 37 / CWER 272200Z AUTO 05031G37KT RMK AO1 PK WND 06038/2112
ENHM 31 9/7 30.00 ENHM 272220Z AUTO 34031KT 9999NDV FEW018/// SCT048/// 09/07 Q1016 W10/S/
ENLA NO Ula Platform 31 10/6 29.97 ENLA 272220Z AUTO 30031KT 9999NDV FEW022/// 10/06 Q1015 W///S5
EHFD 31 6.21 11/7 30.03 EHFD 272225Z AUTO 30031KT 9999 FEW017/// SCT028/// 11/07 Q1017
WAA PAIW Wales, US Wales Airport 31 36 3 1/1 30.01 PAIW 272225Z AUTO 20031G36KT 3SM -RA BR OVC003 01/01 A3001 RMK AO2 PK WND 20038/2157 RAB07 FZRANO PNO $
K0CO 29 39 7/-10 30.45 K0CO 272215Z AUTO 29029G39KT SCT075 SCT095 BKN110 07/M10 A3045 RMK AO2 PWINO
EHMG 29 6.21 12/7 30.12 EHMG 272225Z AUTO 30029KT 9999 FEW016/// SCT020/// 12/07 Q1020
CPR KCPR Casper, US Casper-Natrona County International Airport 28 37 10 27/0 29.86 KCPR 272153Z 25028G37KT 10SM CLR 28/00 A2986 RMK AO2 PK WND 24042/2141 RAB2054E01 SLP058 P0000 T02780000
K1KM 28 33 10 21/1 29.82 K1KM 272158Z AUTO 26028G33KT 10SM SCT210 21/02 A2982 RMK AO2 PK WND 26037/36 LTG DSNT E SLP079 T02120017 $
CWXA 28 16/2 CWXA 272200Z AUTO 00028KT 17/02 RMK AO1 SLP055 T01690023 53003
CXBR 28 / CXBR 272200Z AUTO 25028KT RMK AO1 PK WND 24039/2117
FJR OMFJ AE Fujairah International Airport 28 3.73 35/8 29.47 OMFJ 272200Z 28028KT 6000 NSC 35/08 Q0998 A2949
ENDR 28 7/6 29.73 ENDR 272220Z AUTO 36028KT 9999NDV -DZ OVC007/// 07/06 Q1007 W///S4
AIA KAIA Alliance, US Alliance Municipal Airport 28 41 10 26/2 29.83 KAIA 272222Z AUTO 23028G41KT 10SM -RA FEW055 BKN090 BKN110 27/03 A2983 RMK AO2 PK WND 18061/2155 WSHFT 2202 LTG DSNT E AND SE AND NW P0000 T02670028
EHJA 28 6.21 11/8 30.15 EHJA 272225Z AUTO 32028KT 9999 NSC 11/08 Q1021
EHMA 28 6.21 12/8 30.06 EHMA 272225Z AUTO 30028KT 9999 FEW019/// SCT026/// BKN035/// 12/08 Q1018
KABH 27 35 10 29/-4 30.01 KABH 272158Z AUTO 25027G35KT 10SM BKN220 29/M04 A3001 RMK AO2 RAE2058 SLP085 P0000 T02941042
K2WX 27 38 26/11 29.62 K2WX 272211Z AUTO 30027G38KT 26/12 A2962 RMK AO1 PK WND 29038/2205 WSHFT 2151 T02610117
KFLY 27 36 10 25/-3 30.07 KFLY 272214Z AUTO 24027G36KT 10SM CLR 25/M04 A3007 RMK AO2 T02501036
ENQA NO Troll A Platform 27 8/6 29.94 ENQA 272220Z AUTO 34027KT 9999NDV NCD 08/06 Q1014 W13/S4
CPIR 26 21/3 CPIR 272200Z AUTO 25026KT 21/04 RMK AO1 PK WND 26036/2127 T02120039
CXRB 26 -6/-9 CXRB 272200Z AUTO 11026KT M06/M10 RMK AO1 PK WND 11034/2129 SLP144 T10601098 51020
HAU ENHD Karmøy, NO Haugesund Airport 26 6.21 10/6 29.85 ENHD 272220Z AUTO 33026KT 9999 FEW017/// SCT028/// 10/06 Q1011
ENOA NO Oseberg A Platform 26 6.21 9/6 29.97 ENOA 272220Z 34026KT 9999 FEW017 BKN038 09/06 Q1015 W///S4
EHHW Gemini Wind Farm, NL Buitengaats / BG-OHVS2 Helipad 26 6.21 11/6 30.03 EHHW 272225Z AUTO 31026KT 9999 FEW020/// SCT029/// 11/06 Q1017
YQF CYQF Red Deer, CA Red Deer Regional Airport 26 32 9 17/5 29.52 CYQF 272238Z AUTO 13026G32KT 120V200 9SM -RA SCT071 OVC100 17/05 A2952 RMK LTNG DIST SE S W PRESFR SLP999 DENSITY ALT 4300FT
HUX MMBT Huatulco, MX Bahías de Huatulco International Airport 25 35 10 29/22 29.84 MMBT 272140Z 09025G35KT 10SM FEW030 SCT120 OVC220 29/22 A2984 RMK 8/118
UAK BGBW Narsarsuaq, GL Narsarsuaq Airport 25 6.21 11/-7 29.76 BGBW 272150Z 05025KT 9999 FEW055 BKN090 BKN110 11/M07 Q1008
LVM KLVM Livingston, US Mission Field 25 34 10 23/4 29.82 KLVM 272153Z AUTO 28025G34KT 10SM CLR 23/04 A2982 RMK AO2 PK WND 26037/2105 SLP058 T02330044
FCS KFCS Fort Carson, US Butts AAF (Fort Carson) Air Field 25 35 5 30/0 30.00 KFCS 272155Z 31025G35KT 5SM BLDU BKN100 30/00 A3000 RMK SLPNO RVRNO WND DATA ESTMD $
KMWN 25 31 0.06 11/11 KMWN 272157Z COR 22025G31KT 1/16SM -SHRA FG VV000 11/11 RMK TSB40E55
CWQK 25 11/6 CWQK 272200Z AUTO 29025KT 12/07 RMK AO1 PK WND 30029/2142 SLP137 T01190068
CWRU 25 8/ CWRU 272200Z AUTO 17025KT 09/ RMK AO1 PK WND 17031/2105 SLP081 T0089 51026
EAN KEAN Wheatland, US Phifer Airfield 25 40 10 24/0 29.88 KEAN 272210Z AUTO 26025G40KT 10SM SCT095 25/00 A2988 RMK AO2 T02471004
VDS ENVD Vadsø, NO Vadsø Airport 25 4.35 4/4 29.44 ENVD 272220Z 07025KT 7000 RA OVC006 04/04 Q0997
KCII Choteau, US Choteau Airport 25 43 10 21/0 29.75 KCII 272225Z AUTO 25025G43KT 10SM 21/00 A2975 RMK A01 Choteau
DTA KDTA Delta, US Delta Municipal Airport 25 30 10 31/-5 29.87 KDTA 272235Z AUTO 19025G30KT 10SM CLR 31/M05 A2987 RMK AO1
AMA KAMA Amarillo, US Rick Husband Amarillo International Airport 24 33 10 33/7 29.95 KAMA 272153Z 21024G33KT 10SM CLR 34/08 A2995 RMK AO2 PK WND 20035/2054 SLP087 T03390078
EDW KEDW Edwards, US Edwards Air Force Base 24 31 70 30/-2 29.90 KEDW 272158Z 24024G31KT 70SM BKN250 31/M02 A2990 RMK AO2A PK WND 24033/46 SLP102 T03071020